sensor_id;sensor_type;location;lat;lon;timestamp;pressure;altitude;pressure_sealevel;temperature;humidity
59104;BME280;51449;51.676;5.812;2022-11-27T00:02:03;102511.06;;;6.44;79.99
59104;BME280;51449;51.676;5.812;2022-11-27T00:04:25;102521.16;;;6.43;79.65
59104;BME280;51449;51.676;5.812;2022-11-27T00:06:47;102506.09;;;6.41;79.31
59104;BME280;51449;51.676;5.812;2022-11-27T00:09:11;102511.84;;;6.39;79.62
59104;BME280;51449;51.676;5.812;2022-11-27T00:11:35;102503.88;;;6.38;79.63
59104;BME280;51449;51.676;5.812;2022-11-27T00:14:00;102494.28;;;6.35;79.76
59104;BME280;51449;51.676;5.812;2022-11-27T00:16:23;102497.28;;;6.34;79.70
59104;BME280;51449;51.676;5.812;2022-11-27T00:18:46;102494.00;;;6.32;79.65
59104;BME280;51449;51.676;5.812;2022-11-27T00:21:19;102491.53;;;6.30;79.75
59104;BME280;51449;51.676;5.812;2022-11-27T00:23:43;102476.19;;;6.29;79.85
59104;BME280;51449;51.676;5.812;2022-11-27T00:26:06;102472.63;;;6.29;79.61
59104;BME280;51449;51.676;5.812;2022-11-27T00:28:29;102472.91;;;6.27;79.58
59104;BME280;51449;51.676;5.812;2022-11-27T00:30:51;102468.50;;;6.26;79.22
59104;BME280;51449;51.676;5.812;2022-11-27T00:33:13;102478.88;;;6.24;79.36
59104;BME280;51449;51.676;5.812;2022-11-27T00:35:34;102470.94;;;6.22;79.65
59104;BME280;51449;51.676;5.812;2022-11-27T00:37:58;102464.91;;;6.20;79.31
59104;BME280;51449;51.676;5.812;2022-11-27T00:40:20;102471.47;;;6.19;79.80
59104;BME280;51449;51.676;5.812;2022-11-27T00:42:42;102466.25;;;6.18;79.59
59104;BME280;51449;51.676;5.812;2022-11-27T00:45:04;102450.94;;;6.17;79.92
59104;BME280;51449;51.676;5.812;2022-11-27T00:47:26;102456.94;;;6.19;79.72
59104;BME280;51449;51.676;5.812;2022-11-27T00:49:49;102458.31;;;6.16;79.92
59104;BME280;51449;51.676;5.812;2022-11-27T00:52:11;102455.56;;;6.16;79.93
59104;BME280;51449;51.676;5.812;2022-11-27T00:54:33;102459.66;;;6.14;80.02
59104;BME280;51449;51.676;5.812;2022-11-27T00:56:55;102451.44;;;6.14;79.76
59104;BME280;51449;51.676;5.812;2022-11-27T00:59:17;102458.03;;;6.13;79.96
59104;BME280;51449;51.676;5.812;2022-11-27T01:01:40;102454.72;;;6.11;79.82
59104;BME280;51449;51.676;5.812;2022-11-27T01:04:05;102453.09;;;6.10;80.21
59104;BME280;51449;51.676;5.812;2022-11-27T01:06:29;102447.88;;;6.08;79.66
59104;BME280;51449;51.676;5.812;2022-11-27T01:08:51;102450.84;;;6.07;79.77
59104;BME280;51449;51.676;5.812;2022-11-27T01:11:19;102446.22;;;6.07;79.19
59104;BME280;51449;51.676;5.812;2022-11-27T01:13:43;102448.41;;;6.05;80.00
59104;BME280;51449;51.676;5.812;2022-11-27T01:16:11;102445.66;;;6.05;80.05
59104;BME280;51449;51.676;5.812;2022-11-27T01:18:40;102445.66;;;6.05;79.48
59104;BME280;51449;51.676;5.812;2022-11-27T01:21:04;102447.81;;;6.03;79.08
59104;BME280;51449;51.676;5.812;2022-11-27T01:23:26;102437.41;;;6.00;79.34
59104;BME280;51449;51.676;5.812;2022-11-27T01:25:48;102433.03;;;5.99;79.78
59104;BME280;51449;51.676;5.812;2022-11-27T01:28:11;102428.31;;;5.94;79.19
59104;BME280;51449;51.676;5.812;2022-11-27T01:30:36;102435.41;;;5.90;79.57
59104;BME280;51449;51.676;5.812;2022-11-27T01:32:58;102435.91;;;5.87;79.49
59104;BME280;51449;51.676;5.812;2022-11-27T01:35:20;102438.06;;;5.85;79.06
59104;BME280;51449;51.676;5.812;2022-11-27T01:37:42;102443.00;;;5.83;79.05
59104;BME280;51449;51.676;5.812;2022-11-27T01:40:04;102426.28;;;5.79;79.44
59104;BME280;51449;51.676;5.812;2022-11-27T01:42:27;102435.00;;;5.76;79.28
59104;BME280;51449;51.676;5.812;2022-11-27T01:44:52;102429.78;;;5.75;79.49
59104;BME280;51449;51.676;5.812;2022-11-27T01:47:24;102430.63;;;5.75;79.22
59104;BME280;51449;51.676;5.812;2022-11-27T01:49:52;102422.13;;;5.72;79.46
59104;BME280;51449;51.676;5.812;2022-11-27T01:52:21;102420.50;;;5.71;79.43
59104;BME280;51449;51.676;5.812;2022-11-27T01:57:43;102422.13;;;5.72;79.79
59104;BME280;51449;51.676;5.812;2022-11-27T02:00:11;102415.84;;;5.71;80.08
59104;BME280;51449;51.676;5.812;2022-11-27T02:02:35;102412.28;;;5.71;79.95
59104;BME280;51449;51.676;5.812;2022-11-27T02:04:57;102406.53;;;5.72;80.26
59104;BME280;51449;51.676;5.812;2022-11-27T02:07:19;102401.88;;;5.73;80.21
59104;BME280;51449;51.676;5.812;2022-11-27T02:09:41;102384.41;;;5.74;80.07
59104;BME280;51449;51.676;5.812;2022-11-27T02:20:34;102352.16;;;5.76;79.73
59104;BME280;51449;51.676;5.812;2022-11-27T02:23:31;102349.41;;;5.76;80.11
59104;BME280;51449;51.676;5.812;2022-11-27T02:26:36;102336.56;;;5.76;80.11
59104;BME280;51449;51.676;5.812;2022-11-27T02:29:22;102327.78;;;5.74;80.30
59104;BME280;51449;51.676;5.812;2022-11-27T02:31:58;102315.75;;;5.75;79.79
59104;BME280;51449;51.676;5.812;2022-11-27T02:37:11;102301.53;;;5.73;80.07
59104;BME280;51449;51.676;5.812;2022-11-27T02:40:09;102291.69;;;5.72;80.60
59104;BME280;51449;51.676;5.812;2022-11-27T02:42:57;102292.78;;;5.71;80.18
59104;BME280;51449;51.676;5.812;2022-11-27T02:45:29;102297.97;;;5.73;80.40
59104;BME280;51449;51.676;5.812;2022-11-27T02:47:55;102303.19;;;5.74;80.23
59104;BME280;51449;51.676;5.812;2022-11-27T02:50:21;102304.81;;;5.75;80.55
59104;BME280;51449;51.676;5.812;2022-11-27T02:52:48;102307.56;;;5.75;79.71
59104;BME280;51449;51.676;5.812;2022-11-27T02:55:17;102310.03;;;5.77;79.99
59104;BME280;51449;51.676;5.812;2022-11-27T02:57:44;102313.34;;;5.79;80.23
59104;BME280;51449;51.676;5.812;2022-11-27T03:00:09;102322.34;;;5.79;80.22
59104;BME280;51449;51.676;5.812;2022-11-27T03:02:49;102321.00;;;5.82;80.09
59104;BME280;51449;51.676;5.812;2022-11-27T03:05:19;102318.53;;;5.81;80.06
59104;BME280;51449;51.676;5.812;2022-11-27T03:10:18;102303.53;;;5.83;80.41
59104;BME280;51449;51.676;5.812;2022-11-27T03:12:47;102303.22;;;5.85;79.84
59104;BME280;51449;51.676;5.812;2022-11-27T03:15:10;102298.31;;;5.87;80.09
59104;BME280;51449;51.676;5.812;2022-11-27T03:17:52;102302.44;;;5.89;80.09
59104;BME280;51449;51.676;5.812;2022-11-27T03:20:29;102298.88;;;5.89;79.92
59104;BME280;51449;51.676;5.812;2022-11-27T03:22:53;102304.09;;;5.90;79.98
59104;BME280;51449;51.676;5.812;2022-11-27T03:25:16;102307.38;;;5.92;80.14
59104;BME280;51449;51.676;5.812;2022-11-27T03:27:44;102299.75;;;5.94;80.17
59104;BME280;51449;51.676;5.812;2022-11-27T03:30:11;102290.19;;;5.97;80.13
59104;BME280;51449;51.676;5.812;2022-11-27T03:32:34;102299.25;;;5.97;79.84
59104;BME280;51449;51.676;5.812;2022-11-27T03:34:56;102288.03;;;5.99;80.07
59104;BME280;51449;51.676;5.812;2022-11-27T03:37:18;102283.13;;;6.01;79.84
59104;BME280;51449;51.676;5.812;2022-11-27T03:39:41;102284.75;;;6.02;80.21
59104;BME280;51449;51.676;5.812;2022-11-27T03:51:15;102288.06;;;6.09;79.98
59104;BME280;51449;51.676;5.812;2022-11-27T03:59:03;102274.13;;;6.11;79.91
59104;BME280;51449;51.676;5.812;2022-11-27T04:01:32;102278.50;;;6.12;79.91
59104;BME280;51449;51.676;5.812;2022-11-27T04:03:54;102270.03;;;6.13;79.73
59104;BME280;51449;51.676;5.812;2022-11-27T04:06:16;102268.09;;;6.14;79.37
59104;BME280;51449;51.676;5.812;2022-11-27T04:08:38;102265.66;;;6.17;79.54
59104;BME280;51449;51.676;5.812;2022-11-27T04:11:01;102270.31;;;6.17;79.40
59104;BME280;51449;51.676;5.812;2022-11-27T04:13:23;102270.31;;;6.17;79.15
59104;BME280;51449;51.676;5.812;2022-11-27T04:15:45;102278.00;;;6.20;79.25
59104;BME280;51449;51.676;5.812;2022-11-27T04:18:07;102264.03;;;6.21;79.29
59104;BME280;51449;51.676;5.812;2022-11-27T04:20:28;102265.69;;;6.22;79.46
59104;BME280;51449;51.676;5.812;2022-11-27T04:22:50;102262.66;;;6.24;78.95
59104;BME280;51449;51.676;5.812;2022-11-27T04:25:12;102247.09;;;6.25;79.13
59104;BME280;51449;51.676;5.812;2022-11-27T04:27:34;102256.94;;;6.26;79.12
59104;BME280;51449;51.676;5.812;2022-11-27T04:29:57;102258.56;;;6.27;79.31
59104;BME280;51449;51.676;5.812;2022-11-27T04:32:19;102256.66;;;6.27;79.50
59104;BME280;51449;51.676;5.812;2022-11-27T04:34:40;102249.84;;;6.30;79.08
59104;BME280;51449;51.676;5.812;2022-11-27T04:37:03;102251.75;;;6.29;79.18
59104;BME280;51449;51.676;5.812;2022-11-27T04:39:25;102257.22;;;6.29;79.07
59104;BME280;51449;51.676;5.812;2022-11-27T04:41:47;102263.22;;;6.31;78.99
59104;BME280;51449;51.676;5.812;2022-11-27T04:44:10;102255.88;;;6.32;78.86
59104;BME280;51449;51.676;5.812;2022-11-27T04:46:32;102266.53;;;6.33;78.77
59104;BME280;51449;51.676;5.812;2022-11-27T04:48:55;102267.34;;;6.34;78.94
59104;BME280;51449;51.676;5.812;2022-11-27T04:51:16;102264.59;;;6.34;79.04
59104;BME280;51449;51.676;5.812;2022-11-27T04:53:38;102261.88;;;6.34;78.68
59104;BME280;51449;51.676;5.812;2022-11-27T04:56:00;102258.31;;;6.33;79.28
59104;BME280;51449;51.676;5.812;2022-11-27T04:58:22;102260.78;;;6.35;78.83
59104;BME280;51449;51.676;5.812;2022-11-27T05:00:44;102253.13;;;6.37;79.11
59104;BME280;51449;51.676;5.812;2022-11-27T05:03:06;102242.19;;;6.37;78.71
59104;BME280;51449;51.676;5.812;2022-11-27T05:05:28;102240.28;;;6.37;78.43
59104;BME280;51449;51.676;5.812;2022-11-27T05:07:50;102224.91;;;6.36;78.52
59104;BME280;51449;51.676;5.812;2022-11-27T05:10:12;102224.91;;;6.36;78.02
59104;BME280;51449;51.676;5.812;2022-11-27T05:12:34;102231.25;;;6.37;78.74
59104;BME280;51449;51.676;5.812;2022-11-27T05:14:56;102223.03;;;6.37;79.11
59104;BME280;51449;51.676;5.812;2022-11-27T05:17:24;102220.28;;;6.37;78.13
59104;BME280;51449;51.676;5.812;2022-11-27T05:19:46;102229.31;;;6.37;78.18
59104;BME280;51449;51.676;5.812;2022-11-27T05:22:08;102222.75;;;6.38;78.83
59104;BME280;51449;51.676;5.812;2022-11-27T05:24:30;102198.38;;;6.37;78.64
59104;BME280;51449;51.676;5.812;2022-11-27T05:26:52;102206.88;;;6.35;78.51
59104;BME280;51449;51.676;5.812;2022-11-27T05:29:16;102210.72;;;6.34;78.50
59104;BME280;51449;51.676;5.812;2022-11-27T05:31:39;102206.88;;;6.35;78.59
59104;BME280;51449;51.676;5.812;2022-11-27T05:34:02;102204.38;;;6.34;78.27
59104;BME280;51449;51.676;5.812;2022-11-27T05:36:25;102200.56;;;6.35;78.11
59104;BME280;51449;51.676;5.812;2022-11-27T05:38:47;102194.28;;;6.34;78.08
59104;BME280;51449;51.676;5.812;2022-11-27T05:41:09;102187.97;;;6.34;78.17
59104;BME280;51449;51.676;5.812;2022-11-27T05:43:31;102198.66;;;6.35;78.51
59104;BME280;51449;51.676;5.812;2022-11-27T05:45:53;102190.44;;;6.35;78.39
59104;BME280;51449;51.676;5.812;2022-11-27T05:48:15;102184.69;;;6.37;78.24
59104;BME280;51449;51.676;5.812;2022-11-27T05:50:37;102184.69;;;6.37;78.18
59104;BME280;51449;51.676;5.812;2022-11-27T05:52:59;102182.78;;;6.37;78.16
59104;BME280;51449;51.676;5.812;2022-11-27T05:55:21;102186.34;;;6.38;78.03
59104;BME280;51449;51.676;5.812;2022-11-27T05:57:43;102179.22;;;6.37;78.01
59104;BME280;51449;51.676;5.812;2022-11-27T06:00:05;102180.59;;;6.39;78.15
59104;BME280;51449;51.676;5.812;2022-11-27T06:02:29;102187.16;;;6.38;77.61
59104;BME280;51449;51.676;5.812;2022-11-27T06:04:51;102175.66;;;6.36;78.10
59104;BME280;51449;51.676;5.812;2022-11-27T06:07:13;102170.72;;;6.38;77.98
59104;BME280;51449;51.676;5.812;2022-11-27T06:09:38;102175.94;;;6.40;78.22
59104;BME280;51449;51.676;5.812;2022-11-27T06:12:00;102171.28;;;6.40;78.45
59104;BME280;51449;51.676;5.812;2022-11-27T06:14:21;102171.03;;;6.42;78.49
59104;BME280;51449;51.676;5.812;2022-11-27T06:16:43;102169.09;;;6.42;78.60
59104;BME280;51449;51.676;5.812;2022-11-27T06:19:06;102169.66;;;6.45;78.07
59104;BME280;51449;51.676;5.812;2022-11-27T06:21:29;102176.22;;;6.49;78.33
59104;BME280;51449;51.676;5.812;2022-11-27T06:23:54;102160.63;;;6.49;78.24
59104;BME280;51449;51.676;5.812;2022-11-27T06:26:20;102154.34;;;6.49;78.04
59104;BME280;51449;51.676;5.812;2022-11-27T06:28:45;102149.94;;;6.48;77.79
59104;BME280;51449;51.676;5.812;2022-11-27T06:31:13;102152.13;;;6.51;77.85
59104;BME280;51449;51.676;5.812;2022-11-27T06:33:39;102143.91;;;6.51;77.81
59104;BME280;51449;51.676;5.812;2022-11-27T06:36:02;102149.94;;;6.53;77.81
59104;BME280;51449;51.676;5.812;2022-11-27T06:38:25;102137.91;;;6.54;78.11
59104;BME280;51449;51.676;5.812;2022-11-27T06:40:47;102143.38;;;6.54;78.29
59104;BME280;51449;51.676;5.812;2022-11-27T06:43:09;102138.16;;;6.52;77.79
59104;BME280;51449;51.676;5.812;2022-11-27T06:45:30;102136.25;;;6.53;77.73
59104;BME280;51449;51.676;5.812;2022-11-27T06:47:52;102137.06;;;6.53;77.87
59104;BME280;51449;51.676;5.812;2022-11-27T06:50:14;102141.72;;;6.53;77.78
59104;BME280;51449;51.676;5.812;2022-11-27T06:52:36;102151.28;;;6.55;77.68
59104;BME280;51449;51.676;5.812;2022-11-27T06:55:01;102151.03;;;6.57;77.51
59104;BME280;51449;51.676;5.812;2022-11-27T06:57:23;102141.19;;;6.61;77.88
59104;BME280;51449;51.676;5.812;2022-11-27T06:59:45;102153.78;;;6.62;77.80
59104;BME280;51449;51.676;5.812;2022-11-27T07:02:12;102148.03;;;6.63;77.97
59104;BME280;51449;51.676;5.812;2022-11-27T07:04:35;102135.97;;;6.64;77.68
59104;BME280;51449;51.676;5.812;2022-11-27T07:06:57;102146.66;;;6.66;77.50
59104;BME280;51449;51.676;5.812;2022-11-27T07:09:19;102140.88;;;6.68;77.75
59104;BME280;51449;51.676;5.812;2022-11-27T07:11:41;102140.63;;;6.69;77.30
59104;BME280;51449;51.676;5.812;2022-11-27T07:14:04;102135.97;;;6.70;77.43
59104;BME280;51449;51.676;5.812;2022-11-27T07:16:28;102131.28;;;6.70;77.50
59104;BME280;51449;51.676;5.812;2022-11-27T07:18:54;102134.03;;;6.70;77.84
59104;BME280;51449;51.676;5.812;2022-11-27T07:24:33;102123.09;;;6.70;77.34
59104;BME280;51449;51.676;5.812;2022-11-27T07:26:57;102118.72;;;6.69;77.18
59104;BME280;51449;51.676;5.812;2022-11-27T07:38:03;102107.75;;;6.69;77.67
59104;BME280;51449;51.676;5.812;2022-11-27T07:43:51;102096.81;;;6.69;78.17
59104;BME280;51449;51.676;5.812;2022-11-27T07:46:36;102104.19;;;6.74;78.22
59104;BME280;51449;51.676;5.812;2022-11-27T07:48:58;102100.66;;;6.73;78.26
59104;BME280;51449;51.676;5.812;2022-11-27T07:51:22;102094.06;;;6.74;78.07
59104;BME280;51449;51.676;5.812;2022-11-27T07:53:44;102098.41;;;6.75;78.15
59104;BME280;51449;51.676;5.812;2022-11-27T07:56:08;102099.78;;;6.78;78.22
59104;BME280;51449;51.676;5.812;2022-11-27T07:58:32;102087.19;;;6.77;78.21
59104;BME280;51449;51.676;5.812;2022-11-27T08:00:54;102086.38;;;6.76;78.66
59104;BME280;51449;51.676;5.812;2022-11-27T08:03:17;102082.53;;;6.77;78.63
59104;BME280;51449;51.676;5.812;2022-11-27T08:05:39;102078.72;;;6.78;78.29
59104;BME280;51449;51.676;5.812;2022-11-27T08:08:02;102080.63;;;6.78;78.40
59104;BME280;51449;51.676;5.812;2022-11-27T08:10:25;102072.41;;;6.78;78.70
59104;BME280;51449;51.676;5.812;2022-11-27T08:12:48;102063.91;;;6.79;78.86
59104;BME280;51449;51.676;5.812;2022-11-27T08:15:10;102071.31;;;6.79;78.91
59104;BME280;51449;51.676;5.812;2022-11-27T08:17:32;102072.13;;;6.79;78.82
59104;BME280;51449;51.676;5.812;2022-11-27T08:19:54;102060.09;;;6.80;79.38
59104;BME280;51449;51.676;5.812;2022-11-27T08:22:16;102066.38;;;6.81;79.12
59104;BME280;51449;51.676;5.812;2022-11-27T08:24:40;102061.72;;;6.81;79.39
59104;BME280;51449;51.676;5.812;2022-11-27T08:27:03;102058.97;;;6.81;79.83
59104;BME280;51449;51.676;5.812;2022-11-27T08:29:25;102061.44;;;6.83;79.23
59104;BME280;51449;51.676;5.812;2022-11-27T08:31:54;102052.94;;;6.84;79.18
59104;BME280;51449;51.676;5.812;2022-11-27T08:34:16;102058.41;;;6.84;79.44
59104;BME280;51449;51.676;5.812;2022-11-27T08:36:38;102054.06;;;6.83;79.51
59104;BME280;51449;51.676;5.812;2022-11-27T08:39:00;102042.28;;;6.83;79.10
59104;BME280;51449;51.676;5.812;2022-11-27T08:41:22;102039.81;;;6.81;79.64
59104;BME280;51449;51.676;5.812;2022-11-27T08:43:44;102040.63;;;6.82;79.59
59104;BME280;51449;51.676;5.812;2022-11-27T08:46:06;102039.81;;;6.81;79.92
59104;BME280;51449;51.676;5.812;2022-11-27T08:48:29;102046.91;;;6.82;79.84
59104;BME280;51449;51.676;5.812;2022-11-27T08:50:51;102037.63;;;6.83;79.88
59104;BME280;51449;51.676;5.812;2022-11-27T08:53:13;102042.28;;;6.83;79.69
59104;BME280;51449;51.676;5.812;2022-11-27T08:55:36;102043.63;;;6.85;80.16
59104;BME280;51449;51.676;5.812;2022-11-27T08:57:58;102036.22;;;6.86;80.15
59104;BME280;51449;51.676;5.812;2022-11-27T09:00:20;102030.47;;;6.88;80.38
59104;BME280;51449;51.676;5.812;2022-11-27T09:02:48;102023.91;;;6.89;80.13
59104;BME280;51449;51.676;5.812;2022-11-27T09:05:10;102031.84;;;6.90;80.48
59104;BME280;51449;51.676;5.812;2022-11-27T09:07:32;102023.34;;;6.92;80.16
59104;BME280;51449;51.676;5.812;2022-11-27T09:09:54;102014.03;;;6.93;80.19
59104;BME280;51449;51.676;5.812;2022-11-27T09:12:16;102018.41;;;6.94;80.53
59104;BME280;51449;51.676;5.812;2022-11-27T09:14:38;102017.28;;;6.95;80.44
59104;BME280;51449;51.676;5.812;2022-11-27T09:17:00;102018.94;;;6.96;80.63
59104;BME280;51449;51.676;5.812;2022-11-27T09:19:22;102021.69;;;6.96;80.47
59104;BME280;51449;51.676;5.812;2022-11-27T09:21:48;102015.09;;;6.97;80.65
59104;BME280;51449;51.676;5.812;2022-11-27T09:24:11;102014.00;;;6.98;80.61
59104;BME280;51449;51.676;5.812;2022-11-27T09:26:34;102009.34;;;6.98;80.52
59104;BME280;51449;51.676;5.812;2022-11-27T09:28:57;102001.94;;;6.99;79.99
59104;BME280;51449;51.676;5.812;2022-11-27T09:31:20;102014.25;;;7.01;80.51
59104;BME280;51449;51.676;5.812;2022-11-27T09:33:43;102016.72;;;7.03;80.57
59104;BME280;51449;51.676;5.812;2022-11-27T09:36:09;102026.56;;;7.04;80.12
59104;BME280;51449;51.676;5.812;2022-11-27T09:38:33;102023.03;;;7.03;80.47
59104;BME280;51449;51.676;5.812;2022-11-27T09:41:00;102027.66;;;7.08;80.52
59104;BME280;51449;51.676;5.812;2022-11-27T09:43:30;102018.88;;;7.11;80.85
59104;BME280;51449;51.676;5.812;2022-11-27T09:46:04;102018.31;;;7.14;80.88
59104;BME280;51449;51.676;5.812;2022-11-27T09:48:40;102029.81;;;7.16;80.89
59104;BME280;51449;51.676;5.812;2022-11-27T09:51:36;102031.44;;;7.22;80.64
59104;BME280;51449;51.676;5.812;2022-11-27T09:54:29;102026.50;;;7.24;80.58
59104;BME280;51449;51.676;5.812;2022-11-27T09:56:58;102025.13;;;7.27;80.84
59104;BME280;51449;51.676;5.812;2022-11-27T09:59:28;102030.84;;;7.31;80.60
59104;BME280;51449;51.676;5.812;2022-11-27T10:01:57;102020.16;;;7.34;80.76
59104;BME280;51449;51.676;5.812;2022-11-27T10:04:19;102022.84;;;7.39;80.68
59104;BME280;51449;51.676;5.812;2022-11-27T10:09:33;102015.94;;;7.47;80.91
59104;BME280;51449;51.676;5.812;2022-11-27T10:17:17;102005.19;;;7.61;81.15
59104;BME280;51449;51.676;5.812;2022-11-27T10:22:57;101985.06;;;7.70;80.98
59104;BME280;51449;51.676;5.812;2022-11-27T10:28:24;101973.53;;;7.74;80.88
59104;BME280;51449;51.676;5.812;2022-11-27T10:31:28;101964.44;;;7.78;81.04
59104;BME280;51449;51.676;5.812;2022-11-27T10:33:59;101967.19;;;7.78;80.83
59104;BME280;51449;51.676;5.812;2022-11-27T10:36:29;101965.25;;;7.79;81.01
59104;BME280;51449;51.676;5.812;2022-11-27T10:38:53;101953.72;;;7.82;81.17
59104;BME280;51449;51.676;5.812;2022-11-27T10:41:32;101957.53;;;7.86;80.69
59104;BME280;51449;51.676;5.812;2022-11-27T10:44:24;101947.38;;;7.86;80.68
59104;BME280;51449;51.676;5.812;2022-11-27T10:46:50;101947.38;;;7.86;81.01
59104;BME280;51449;51.676;5.812;2022-11-27T10:49:18;101938.53;;;7.89;80.81
59104;BME280;51449;51.676;5.812;2022-11-27T10:51:40;101934.13;;;7.93;80.67
59104;BME280;51449;51.676;5.812;2022-11-27T10:54:04;101943.72;;;7.96;80.94
59104;BME280;51449;51.676;5.812;2022-11-27T10:56:55;101945.88;;;7.99;80.31
59104;BME280;51449;51.676;5.812;2022-11-27T10:59:34;101936.53;;;8.00;80.96
59104;BME280;51449;51.676;5.812;2022-11-27T11:02:01;101931.59;;;8.02;80.47
59104;BME280;51449;51.676;5.812;2022-11-27T11:04:28;101931.81;;;8.06;80.81
59104;BME280;51449;51.676;5.812;2022-11-27T11:07:00;101926.88;;;8.08;80.07
59104;BME280;51449;51.676;5.812;2022-11-27T11:09:27;101921.06;;;8.09;80.29
59104;BME280;51449;51.676;5.812;2022-11-27T11:11:51;101917.81;;;8.07;80.34
59104;BME280;51449;51.676;5.812;2022-11-27T11:14:22;101922.72;;;8.10;80.14
59104;BME280;51449;51.676;5.812;2022-11-27T11:16:46;101918.31;;;8.09;80.31
59104;BME280;51449;51.676;5.812;2022-11-27T11:19:31;101911.75;;;8.10;79.75
59104;BME280;51449;51.676;5.812;2022-11-27T11:22:02;101900.22;;;8.08;80.24
59104;BME280;51449;51.676;5.812;2022-11-27T11:24:32;101896.66;;;8.08;80.53
59104;BME280;51449;51.676;5.812;2022-11-27T11:27:03;101902.16;;;8.08;80.42
59104;BME280;51449;51.676;5.812;2022-11-27T11:29:38;101886.50;;;8.08;80.21
59104;BME280;51449;51.676;5.812;2022-11-27T11:34:50;101884.88;;;8.07;80.37
59104;BME280;51449;51.676;5.812;2022-11-27T11:37:30;101879.09;;;8.09;80.17
59104;BME280;51449;51.676;5.812;2022-11-27T11:40:05;101874.72;;;8.08;80.07
59104;BME280;51449;51.676;5.812;2022-11-27T11:42:37;101878.53;;;8.07;80.08
59104;BME280;51449;51.676;5.812;2022-11-27T11:47:50;101859.34;;;8.07;80.26
59104;BME280;51449;51.676;5.812;2022-11-27T11:53:00;101861.53;;;8.10;80.23
59104;BME280;51449;51.676;5.812;2022-11-27T11:56:10;101855.19;;;8.09;80.36
59104;BME280;51449;51.676;5.812;2022-11-27T11:59:03;101849.41;;;8.11;80.60
59104;BME280;51449;51.676;5.812;2022-11-27T12:07:44;101833.19;;;8.14;80.65
59104;BME280;51449;51.676;5.812;2022-11-27T12:13:21;101806.63;;;8.10;80.98
59104;BME280;51449;51.676;5.812;2022-11-27T12:16:11;101806.63;;;8.10;80.68
59104;BME280;51449;51.676;5.812;2022-11-27T12:30:18;101749.78;;;8.10;80.89
59104;BME280;51449;51.676;5.812;2022-11-27T12:33:13;101745.66;;;8.13;80.41
59104;BME280;51449;51.676;5.812;2022-11-27T12:36:21;101741.25;;;8.12;80.48
59104;BME280;51449;51.676;5.812;2022-11-27T12:39:08;101737.69;;;8.11;80.97
59104;BME280;51449;51.676;5.812;2022-11-27T12:44:54;101753.59;;;8.14;80.58
59104;BME280;51449;51.676;5.812;2022-11-27T12:50:33;101742.31;;;8.16;80.80
59104;BME280;51449;51.676;5.812;2022-11-27T12:55:59;101750.25;;;8.18;80.77
59104;BME280;51449;51.676;5.812;2022-11-27T12:58:40;101747.50;;;8.18;80.80
59104;BME280;51449;51.676;5.812;2022-11-27T13:01:10;101735.13;;;8.20;80.91
59104;BME280;51449;51.676;5.812;2022-11-27T13:04:09;101729.84;;;8.24;80.73
59104;BME280;51449;51.676;5.812;2022-11-27T13:06:57;101725.69;;;8.26;80.62
59104;BME280;51449;51.676;5.812;2022-11-27T13:11:57;101703.97;;;8.30;80.72
59104;BME280;51449;51.676;5.812;2022-11-27T13:14:22;101695.19;;;8.28;80.64
59104;BME280;51449;51.676;5.812;2022-11-27T13:16:55;101697.13;;;8.27;80.89
59104;BME280;51449;51.676;5.812;2022-11-27T13:22:17;101698.75;;;8.28;80.86
59104;BME280;51449;51.676;5.812;2022-11-27T13:24:48;101717.69;;;8.30;80.72
59104;BME280;51449;51.676;5.812;2022-11-27T13:27:16;101711.59;;;8.33;80.72
59104;BME280;51449;51.676;5.812;2022-11-27T13:32:30;101689.63;;;8.33;81.05
59104;BME280;51449;51.676;5.812;2022-11-27T13:35:26;101670.69;;;8.31;80.85
59104;BME280;51449;51.676;5.812;2022-11-27T13:38:08;101651.81;;;8.30;80.77
59104;BME280;51449;51.676;5.812;2022-11-27T13:40:40;101641.09;;;8.28;81.08
59104;BME280;51449;51.676;5.812;2022-11-27T13:43:11;101651.00;;;8.29;81.21
59104;BME280;51449;51.676;5.812;2022-11-27T13:46:25;101655.06;;;8.32;81.24
59104;BME280;51449;51.676;5.812;2022-11-27T13:48:57;101651.19;;;8.33;81.05
59104;BME280;51449;51.676;5.812;2022-11-27T13:51:26;101653.66;;;8.34;81.11
59104;BME280;51449;51.676;5.812;2022-11-27T13:53:50;101662.41;;;8.36;80.82
59104;BME280;51449;51.676;5.812;2022-11-27T13:56:12;101666.78;;;8.38;81.32
59104;BME280;51449;51.676;5.812;2022-11-27T13:58:36;101670.88;;;8.40;81.21
59104;BME280;51449;51.676;5.812;2022-11-27T14:01:15;101673.88;;;8.44;81.17
59104;BME280;51449;51.676;5.812;2022-11-27T14:03:39;101664.78;;;8.43;80.97
59104;BME280;51449;51.676;5.812;2022-11-27T14:06:01;101661.75;;;8.45;81.17
59104;BME280;51449;51.676;5.812;2022-11-27T14:08:30;101648.03;;;8.45;81.39
59104;BME280;51449;51.676;5.812;2022-11-27T14:11:04;101652.72;;;8.44;81.04
59104;BME280;51449;51.676;5.812;2022-11-27T14:13:38;101637.84;;;8.45;81.03
59104;BME280;51449;51.676;5.812;2022-11-27T14:16:51;101647.22;;;8.44;80.71
59104;BME280;51449;51.676;5.812;2022-11-27T14:19:03;101649.16;;;8.44;80.78
59104;BME280;51449;51.676;5.812;2022-11-27T14:21:40;101635.63;;;8.47;80.85
59104;BME280;51449;51.676;5.812;2022-11-27T14:24:37;101622.72;;;8.48;80.89
59104;BME280;51449;51.676;5.812;2022-11-27T14:27:25;101621.38;;;8.45;80.62
59104;BME280;51449;51.676;5.812;2022-11-27T14:29:53;101607.66;;;8.45;80.68
59104;BME280;51449;51.676;5.812;2022-11-27T14:32:18;101598.31;;;8.46;81.01
59104;BME280;51449;51.676;5.812;2022-11-27T14:34:41;101609.59;;;8.45;80.70
59104;BME280;51449;51.676;5.812;2022-11-27T14:37:04;101608.78;;;8.44;80.75
59104;BME280;51449;51.676;5.812;2022-11-27T14:39:27;101603.81;;;8.46;80.60
59104;BME280;51449;51.676;5.812;2022-11-27T14:42:03;101608.97;;;8.48;80.61
59104;BME280;51449;51.676;5.812;2022-11-27T14:44:29;101608.16;;;8.47;81.20
59104;BME280;51449;51.676;5.812;2022-11-27T14:46:51;101605.13;;;8.49;80.78
59104;BME280;51449;51.676;5.812;2022-11-27T14:49:19;101600.97;;;8.51;80.62